Time;durP1;ratioP1;P1;durP2;ratioP2;P2;SDS_P1;SDS_P2;PMS_P1;PMS_P2;Temp;Humidity;BMP_temperature;BMP_pressure;BME280_temperature;BME280_humidity;BME280_pressure;Samples;Min_cycle;Max_cycle;Signal;HPM_P1;HPM_P2
2023/12/14 00:02:28;;;;;;;;;;;;;;;7.72;100.00;95586.59;110415;1241;60086;-62
2023/12/14 00:04:59;;;;;;;;;;;;;;;7.75;100.00;95590.67;110614;1238;71201;-62
2023/12/14 00:07:30;;;;;;;;;;;;;;;7.77;100.00;95589.27;110522;1238;68391;-62
2023/12/14 00:10:00;;;;;;;;;;;;;;;7.79;100.00;95581.23;110421;1241;69273;-63
2023/12/14 00:12:31;;;;;;;;;;;;;;;7.84;100.00;95590.33;110500;1241;59741;-63
2023/12/14 00:15:05;;;;;;;;;;;;;;;7.88;100.00;95593.41;110504;1241;59646;-61
2023/12/14 00:17:37;;;;;;;;;;;;;;;7.90;100.00;95594.11;110546;1241;71369;-61
2023/12/14 00:20:10;;;;;;;;;;;;;;;7.94;100.00;95594.14;110558;1240;68269;-62
2023/12/14 00:22:41;;;;;;;;;;;;;;;7.97;100.00;95604.31;110452;1241;69108;-62
2023/12/14 00:25:11;;;;;;;;;;;;;;;7.98;100.00;95601.26;110525;1241;59648;-63
2023/12/14 00:27:42;;;;;;;;;;;;;;;8.01;100.00;95601.02;110612;1241;59637;-62
2023/12/14 00:30:18;;;;;;;;;;;;;;;8.05;100.00;95602.89;110530;1239;70595;-61
2023/12/14 00:32:49;;;;;;;;;;;;;;;8.04;100.00;95607.80;110538;1240;69259;-63
2023/12/14 00:35:20;;;;;;;;;;;;;;;8.07;100.00;95608.56;110592;1240;69622;-63
2023/12/14 00:37:51;;;;;;;;;;;;;;;8.12;100.00;95602.20;110644;1241;59591;-62
2023/12/14 00:40:25;;;;;;;;;;;;;;;8.18;100.00;95605.83;110431;1238;59678;-61
2023/12/14 00:42:56;;;;;;;;;;;;;;;8.25;100.00;95604.13;110581;1238;71395;-62
2023/12/14 00:45:26;;;;;;;;;;;;;;;8.31;100.00;95612.29;110624;1241;68427;-62
2023/12/14 00:47:57;;;;;;;;;;;;;;;8.31;100.00;95619.25;110457;1243;69313;-61
2023/12/14 00:50:27;;;;;;;;;;;;;;;8.29;100.00;95615.75;110571;1240;59622;-61
2023/12/14 00:52:57;;;;;;;;;;;;;;;8.29;100.00;95622.72;110554;1238;59693;-63
2023/12/14 00:55:29;;;;;;;;;;;;;;;8.30;100.00;95629.00;110545;1241;71388;-61
2023/12/14 00:58:02;;;;;;;;;;;;;;;8.31;100.00;95620.98;110442;1242;68578;-62
2023/12/14 01:00:32;;;;;;;;;;;;;;;8.30;100.00;95616.51;110381;1238;68652;-61
2023/12/14 01:03:02;;;;;;;;;;;;;;;8.37;100.00;95621.74;110496;1240;59731;-63
2023/12/14 01:05:36;;;;;;;;;;;;;;;8.46;100.00;95630.38;110502;1241;59672;-62
2023/12/14 01:08:07;;;;;;;;;;;;;;;8.45;100.00;95631.48;110681;1240;71294;-62
2023/12/14 01:10:38;;;;;;;;;;;;;;;8.42;100.00;95627.09;110516;1241;68504;-63
2023/12/14 01:13:09;;;;;;;;;;;;;;;8.38;100.00;95619.45;110641;1240;68817;-62
2023/12/14 01:15:39;;;;;;;;;;;;;;;8.40;100.00;95619.64;110483;1241;59849;-63
2023/12/14 01:18:10;;;;;;;;;;;;;;;8.38;100.00;95625.20;110521;1241;59685;-63
2023/12/14 01:20:42;;;;;;;;;;;;;;;8.37;100.00;95630.44;110515;1241;71404;-63
2023/12/14 01:23:12;;;;;;;;;;;;;;;8.37;100.00;95630.09;110635;1240;69232;-62
2023/12/14 01:25:43;;;;;;;;;;;;;;;8.38;100.00;95641.52;110516;1238;69131;-62
2023/12/14 01:28:13;;;;;;;;;;;;;;;8.38;100.00;95651.77;110428;1238;59696;-61
2023/12/14 01:30:44;;;;;;;;;;;;;;;8.35;100.00;95653.73;110566;1239;59626;-62
2023/12/14 01:33:14;;;;;;;;;;;;;;;8.31;100.00;95662.92;110654;1241;71496;-62
2023/12/14 01:35:45;;;;;;;;;;;;;;;8.29;100.00;95668.11;110421;1241;68993;-62
2023/12/14 01:38:16;;;;;;;;;;;;;;;8.29;100.00;95680.67;110249;1243;69189;-61
2023/12/14 01:40:48;;;;;;;;;;;;;;;8.30;100.00;95689.05;110406;1241;59672;-61
2023/12/14 01:43:19;;;;;;;;;;;;;;;8.26;100.00;95685.50;110526;1241;59694;-61
2023/12/14 01:45:48;;;;;;;;;;;;;;;8.23;100.00;95702.08;110445;1242;70692;-62
2023/12/14 01:48:18;;;;;;;;;;;;;;;8.20;100.00;95717.63;110493;1240;69299;-61
2023/12/14 01:50:48;;;;;;;;;;;;;;;8.18;100.00;95725.56;110483;1238;69273;-62
2023/12/14 01:53:21;;;;;;;;;;;;;;;8.20;100.00;95719.67;109876;1241;786944;-62
2023/12/14 01:55:54;;;;;;;;;;;;;;;8.18;100.00;95717.45;110487;1241;59650;-63
2023/12/14 01:58:26;;;;;;;;;;;;;;;8.11;100.00;95710.55;110496;1238;71213;-62
2023/12/14 02:01:03;;;;;;;;;;;;;;;8.04;100.00;95704.97;110451;1238;68548;-62
2023/12/14 02:03:36;;;;;;;;;;;;;;;7.96;100.00;95703.27;110492;1242;68568;-63
2023/12/14 02:06:07;;;;;;;;;;;;;;;7.89;100.00;95687.20;110465;1240;59753;-61
2023/12/14 02:08:40;;;;;;;;;;;;;;;7.81;100.00;95679.05;110463;1238;59734;-61
2023/12/14 02:11:14;;;;;;;;;;;;;;;7.74;100.00;95669.60;110436;1241;70735;-62
2023/12/14 02:13:47;;;;;;;;;;;;;;;7.70;100.00;95683.38;110568;1241;68807;-63
2023/12/14 02:16:19;;;;;;;;;;;;;;;7.65;100.00;95695.71;110513;1241;68553;-63
2023/12/14 02:18:50;;;;;;;;;;;;;;;7.59;100.00;95701.13;110530;1240;59754;-62
2023/12/14 02:21:21;;;;;;;;;;;;;;;7.52;100.00;95712.50;110422;1241;59680;-62
2023/12/14 02:23:55;;;;;;;;;;;;;;;7.47;100.00;95714.16;110620;1241;70622;-62
2023/12/14 02:26:26;;;;;;;;;;;;;;;7.41;100.00;95717.45;110324;1238;68564;-63
2023/12/14 02:28:56;;;;;;;;;;;;;;;7.35;100.00;95719.69;110538;1238;68754;-62
2023/12/14 02:31:28;;;;;;;;;;;;;;;7.31;100.00;95721.24;110506;1240;59664;-62
2023/12/14 02:33:58;;;;;;;;;;;;;;;7.28;100.00;95724.13;110432;1241;59598;-62
2023/12/14 02:36:31;;;;;;;;;;;;;;;7.22;100.00;95740.58;110575;1240;70560;-63
2023/12/14 02:39:02;;;;;;;;;;;;;;;7.15;100.00;95737.92;110633;1238;67704;-62
2023/12/14 02:41:32;;;;;;;;;;;;;;;7.07;100.00;95734.20;110442;1239;70223;-62
2023/12/14 02:44:02;;;;;;;;;;;;;;;7.02;100.00;95732.59;110561;1241;60104;-63
2023/12/14 02:46:32;;;;;;;;;;;;;;;6.97;100.00;95752.61;110553;1241;59626;-62
2023/12/14 02:49:02;;;;;;;;;;;;;;;6.93;100.00;95766.81;110534;1238;70589;-62
2023/12/14 02:51:33;;;;;;;;;;;;;;;6.87;100.00;95766.59;110532;1238;68024;-62
2023/12/14 02:54:06;;;;;;;;;;;;;;;6.85;100.00;95775.77;110628;1245;69312;-62
2023/12/14 02:56:37;;;;;;;;;;;;;;;6.83;100.00;95795.33;110495;1238;59682;-62
2023/12/14 02:59:09;;;;;;;;;;;;;;;6.80;100.00;95804.77;110444;1238;60089;-62
2023/12/14 03:01:41;;;;;;;;;;;;;;;6.74;100.00;95821.85;110417;1238;70984;-62
2023/12/14 03:04:13;;;;;;;;;;;;;;;6.71;100.00;95833.55;110507;1238;68327;-62
2023/12/14 03:06:44;;;;;;;;;;;;;;;6.69;100.00;95831.47;110562;1240;67836;-61
2023/12/14 03:09:15;;;;;;;;;;;;;;;6.68;100.00;95823.59;110478;1238;59794;-61
2023/12/14 03:11:47;;;;;;;;;;;;;;;6.70;100.00;95836.73;110476;1241;59619;-62
2023/12/14 03:14:17;;;;;;;;;;;;;;;6.75;100.00;95842.77;110590;1241;71310;-61
2023/12/14 03:16:48;;;;;;;;;;;;;;;6.76;100.00;95835.92;110392;1241;69269;-62
2023/12/14 03:19:20;;;;;;;;;;;;;;;6.74;100.00;95830.37;110534;1241;68823;-62
2023/12/14 03:21:51;;;;;;;;;;;;;;;6.75;100.00;95824.58;110472;1241;59705;-62
2023/12/14 03:24:24;;;;;;;;;;;;;;;6.74;100.00;95829.33;110372;1240;59728;-61
2023/12/14 03:26:54;;;;;;;;;;;;;;;6.71;100.00;95825.98;110395;1238;71365;-62
2023/12/14 03:29:24;;;;;;;;;;;;;;;6.68;100.00;95828.42;110440;1238;69186;-62
2023/12/14 03:31:55;;;;;;;;;;;;;;;6.65;100.00;95825.05;110483;1238;69590;-62
2023/12/14 03:34:25;;;;;;;;;;;;;;;6.63;100.00;95817.56;110610;1241;59709;-62
2023/12/14 03:36:57;;;;;;;;;;;;;;;6.61;100.00;95803.21;110445;1241;59621;-61
2023/12/14 03:39:29;;;;;;;;;;;;;;;6.58;100.00;95810.56;110611;1241;70465;-62
2023/12/14 03:42:00;;;;;;;;;;;;;;;6.53;100.00;95817.70;110548;1241;69300;-61
2023/12/14 03:44:32;;;;;;;;;;;;;;;6.49;100.00;95822.69;110622;1238;69498;-61
2023/12/14 03:47:02;;;;;;;;;;;;;;;6.44;100.00;95827.43;110544;1238;59705;-61
2023/12/14 03:49:36;;;;;;;;;;;;;;;6.41;100.00;95827.20;110515;1239;59656;-62
2023/12/14 03:52:09;;;;;;;;;;;;;;;6.38;100.00;95824.98;110436;1241;71518;-63
2023/12/14 03:54:39;;;;;;;;;;;;;;;6.36;100.00;95830.64;110457;1241;69231;-62
2023/12/14 03:57:10;;;;;;;;;;;;;;;6.36;100.00;95816.16;110524;1241;69126;-62
2023/12/14 03:59:41;;;;;;;;;;;;;;;6.35;100.00;95811.07;110389;1241;59657;-62
2023/12/14 04:02:13;;;;;;;;;;;;;;;6.36;100.00;95819.62;110623;1241;59670;-61
2023/12/14 04:04:46;;;;;;;;;;;;;;;6.38;100.00;95831.59;110481;1238;70434;-61
2023/12/14 04:07:17;;;;;;;;;;;;;;;6.40;100.00;95841.46;110549;1238;69132;-61
2023/12/14 04:09:48;;;;;;;;;;;;;;;6.39;100.00;95839.96;110567;1241;69302;-62
2023/12/14 04:12:20;;;;;;;;;;;;;;;6.40;100.00;95831.24;110632;1241;59699;-61
2023/12/14 04:14:53;;;;;;;;;;;;;;;6.42;100.00;95830.91;110540;1238;59696;-61
2023/12/14 04:17:25;;;;;;;;;;;;;;;6.43;100.00;95831.33;110532;1240;69680;-61
2023/12/14 04:19:57;;;;;;;;;;;;;;;6.45;100.00;95833.93;110468;1240;69073;-62
2023/12/14 04:22:29;;;;;;;;;;;;;;;6.47;100.00;95835.86;110499;1238;68399;-62
2023/12/14 04:25:00;;;;;;;;;;;;;;;6.47;100.00;95839.52;110494;1242;59745;-62
2023/12/14 04:27:31;;;;;;;;;;;;;;;6.48;100.00;95837.30;110455;1240;59684;-62
2023/12/14 04:30:04;;;;;;;;;;;;;;;6.54;100.00;95846.16;110573;1238;71464;-62
2023/12/14 04:32:34;;;;;;;;;;;;;;;6.59;100.00;95862.55;110465;1241;69253;-62
2023/12/14 04:35:05;;;;;;;;;;;;;;;6.62;100.00;95869.92;110527;1240;69317;-62
2023/12/14 04:37:36;;;;;;;;;;;;;;;6.67;100.00;95872.31;110570;1241;59656;-62
2023/12/14 04:40:06;;;;;;;;;;;;;;;6.74;100.00;95884.73;110494;1240;59715;-62
2023/12/14 04:42:36;;;;;;;;;;;;;;;6.78;100.00;95872.25;110540;1240;70828;-62
2023/12/14 04:45:06;;;;;;;;;;;;;;;6.80;100.00;95866.57;110495;1238;68417;-62
2023/12/14 04:47:36;;;;;;;;;;;;;;;6.82;100.00;95857.55;110433;1238;69282;-62
2023/12/14 04:50:07;;;;;;;;;;;;;;;6.85;100.00;95853.48;110365;1240;59705;-62
2023/12/14 04:52:38;;;;;;;;;;;;;;;6.89;100.00;95857.30;110506;1238;59763;-62
2023/12/14 04:55:08;;;;;;;;;;;;;;;6.94;100.00;95855.39;110554;1238;70650;-62
2023/12/14 04:57:38;;;;;;;;;;;;;;;6.98;100.00;95856.92;110567;1242;69834;-62
2023/12/14 05:00:08;;;;;;;;;;;;;;;7.03;100.00;95863.06;110479;1241;68526;-62
2023/12/14 05:02:39;;;;;;;;;;;;;;;7.07;100.00;95868.33;110290;1243;59706;-62
2023/12/14 05:05:08;;;;;;;;;;;;;;;7.11;100.00;95872.34;110505;1238;59601;-62
2023/12/14 05:07:38;;;;;;;;;;;;;;;7.14;100.00;95867.04;110395;1240;72256;-62
2023/12/14 05:10:10;;;;;;;;;;;;;;;7.18;100.00;95863.23;110490;1238;69270;-62
2023/12/14 05:12:39;;;;;;;;;;;;;;;7.21;100.00;95868.34;110393;1238;69229;-62
2023/12/14 05:15:10;;;;;;;;;;;;;;;7.24;100.00;95866.08;110499;1238;59787;-62
2023/12/14 05:17:40;;;;;;;;;;;;;;;7.25;100.00;95856.23;110483;1242;59693;-62
2023/12/14 05:20:10;;;;;;;;;;;;;;;7.27;100.00;95858.55;110529;1240;70346;-62
2023/12/14 05:22:40;;;;;;;;;;;;;;;7.28;100.00;95866.59;110644;1238;69239;-62
2023/12/14 05:25:09;;;;;;;;;;;;;;;7.28;100.00;95872.09;110508;1238;68611;-62
2023/12/14 05:27:39;;;;;;;;;;;;;;;7.28;100.00;95870.17;110595;1241;59671;-62
2023/12/14 05:30:09;;;;;;;;;;;;;;;7.29;100.00;95872.03;110498;1241;59737;-62
2023/12/14 05:32:39;;;;;;;;;;;;;;;7.29;100.00;95879.45;110429;1238;71552;-62
2023/12/14 05:35:10;;;;;;;;;;;;;;;7.30;100.00;95889.06;110506;1240;68323;-62
2023/12/14 05:37:40;;;;;;;;;;;;;;;7.31;100.00;95895.47;110575;1238;69273;-60
2023/12/14 05:40:09;;;;;;;;;;;;;;;7.30;100.00;95896.55;110579;1240;59672;-63
2023/12/14 05:42:40;;;;;;;;;;;;;;;7.29;100.00;95900.60;110618;1238;59678;-63
2023/12/14 05:45:10;;;;;;;;;;;;;;;7.27;100.00;95891.08;110531;1238;71430;-61
2023/12/14 05:47:41;;;;;;;;;;;;;;;7.26;100.00;95884.57;110462;1238;69850;-61
2023/12/14 05:50:11;;;;;;;;;;;;;;;7.27;100.00;95883.83;110501;1248;69884;-61
2023/12/14 05:52:40;;;;;;;;;;;;;;;7.27;100.00;95881.17;110495;1244;59722;-61
2023/12/14 05:55:13;;;;;;;;;;;;;;;7.29;100.00;95878.96;110515;1241;59737;-60
2023/12/14 05:57:42;;;;;;;;;;;;;;;7.31;100.00;95894.01;110456;1240;71391;-61
2023/12/14 06:00:12;;;;;;;;;;;;;;;7.33;100.00;95908.91;110448;1238;70497;-61
2023/12/14 06:02:41;;;;;;;;;;;;;;;7.36;100.00;95915.84;110517;1241;69718;-61
2023/12/14 06:05:11;;;;;;;;;;;;;;;7.36;100.00;95920.63;110509;1241;59739;-63
2023/12/14 06:07:41;;;;;;;;;;;;;;;7.37;100.00;95927.36;110412;1238;60073;-62
2023/12/14 06:10:10;;;;;;;;;;;;;;;7.36;100.00;95940.55;110588;1238;71175;-63
2023/12/14 06:12:39;;;;;;;;;;;;;;;7.33;100.00;95952.79;110357;1240;69810;-62
2023/12/14 06:15:10;;;;;;;;;;;;;;;7.30;100.00;95959.65;110496;1241;69757;-62
2023/12/14 06:17:42;;;;;;;;;;;;;;;7.26;100.00;95959.45;110507;1242;59673;-61
2023/12/14 06:20:11;;;;;;;;;;;;;;;7.22;100.00;95957.38;110391;1238;59672;-61
2023/12/14 06:22:41;;;;;;;;;;;;;;;7.22;100.00;95958.05;110518;1238;72413;-63
2023/12/14 06:25:10;;;;;;;;;;;;;;;7.23;100.00;95960.35;110498;1240;69948;-63
2023/12/14 06:27:41;;;;;;;;;;;;;;;7.25;100.00;95968.04;110420;1241;69892;-63
2023/12/14 06:30:11;;;;;;;;;;;;;;;7.24;100.00;95967.71;110480;1238;59624;-61
2023/12/14 06:32:41;;;;;;;;;;;;;;;7.25;100.00;95962.96;110546;1241;59795;-61
2023/12/14 06:35:10;;;;;;;;;;;;;;;7.25;100.00;95962.11;110573;1238;72010;-61
2023/12/14 06:37:41;;;;;;;;;;;;;;;7.27;100.00;95962.85;110571;1238;68411;-61
2023/12/14 06:40:11;;;;;;;;;;;;;;;7.28;100.00;95968.95;110563;1239;70340;-60
2023/12/14 06:42:42;;;;;;;;;;;;;;;7.30;100.00;95975.89;110571;1239;59681;-60
2023/12/14 06:45:10;;;;;;;;;;;;;;;7.32;100.00;95983.90;110612;1239;59640;-61
2023/12/14 06:47:42;;;;;;;;;;;;;;;7.35;100.00;95982.30;110567;1239;71008;-62
2023/12/14 06:50:13;;;;;;;;;;;;;;;7.37;100.00;95976.40;110715;1240;68490;-61
2023/12/14 06:52:42;;;;;;;;;;;;;;;7.39;100.00;95974.80;110701;1239;69845;-61
2023/12/14 06:55:11;;;;;;;;;;;;;;;7.41;100.00;95977.93;110560;1239;59663;-61
2023/12/14 06:57:46;;;;;;;;;;;;;;;7.44;100.00;95980.66;110575;1239;59670;-62
2023/12/14 07:00:16;;;;;;;;;;;;;;;7.46;100.00;95976.66;110610;1239;71940;-61
2023/12/14 07:02:46;;;;;;;;;;;;;;;7.49;100.00;95987.00;110677;1239;70074;-61
2023/12/14 07:05:15;;;;;;;;;;;;;;;7.51;100.00;95991.55;110450;1238;69892;-61
2023/12/14 07:07:46;;;;;;;;;;;;;;;7.53;100.00;95998.44;110468;1240;59705;-61
2023/12/14 07:10:15;;;;;;;;;;;;;;;7.55;100.00;96000.39;110521;1238;59706;-61
2023/12/14 07:12:46;;;;;;;;;;;;;;;7.57;100.00;96009.03;110244;1245;72121;-61
2023/12/14 07:15:15;;;;;;;;;;;;;;;7.58;100.00;96010.13;110341;1237;69841;-61
2023/12/14 07:17:45;;;;;;;;;;;;;;;7.58;100.00;96009.63;110487;1239;69517;-60
2023/12/14 07:20:13;;;;;;;;;;;;;;;7.55;100.00;96014.42;110597;1238;59712;-60
2023/12/14 07:22:43;;;;;;;;;;;;;;;7.52;100.00;96020.38;110499;1239;59737;-61
2023/12/14 07:25:12;;;;;;;;;;;;;;;7.48;100.00;96023.65;110606;1239;71194;-61
2023/12/14 07:27:43;;;;;;;;;;;;;;;7.43;100.00;96029.27;110680;1238;69095;-61
2023/12/14 07:30:13;;;;;;;;;;;;;;;7.38;100.00;96040.91;110593;1240;69264;-61
2023/12/14 07:32:42;;;;;;;;;;;;;;;7.34;100.00;96045.56;110713;1239;59743;-61
2023/12/14 07:35:12;;;;;;;;;;;;;;;7.31;100.00;96051.17;110518;1239;59643;-61
2023/12/14 07:37:42;;;;;;;;;;;;;;;7.29;100.00;96061.08;110611;1238;71440;-61
2023/12/14 07:40:11;;;;;;;;;;;;;;;7.27;100.00;96069.39;110648;1237;69832;-61
2023/12/14 07:42:42;;;;;;;;;;;;;;;7.25;100.00;96082.41;110439;1239;69281;-61
2023/12/14 07:45:11;;;;;;;;;;;;;;;7.22;100.00;96088.91;110525;1239;59746;-61
2023/12/14 07:47:42;;;;;;;;;;;;;;;7.20;100.00;96091.30;110599;1246;59676;-61
2023/12/14 07:50:12;;;;;;;;;;;;;;;7.16;100.00;96088.85;110475;1239;71723;-61
2023/12/14 07:52:41;;;;;;;;;;;;;;;7.11;100.00;96090.08;110614;1237;69198;-61
2023/12/14 07:55:10;;;;;;;;;;;;;;;7.08;100.00;96103.30;110611;1238;69684;-61
2023/12/14 07:57:39;;;;;;;;;;;;;;;7.07;100.00;96115.37;110570;1238;59750;-61
2023/12/14 08:00:10;;;;;;;;;;;;;;;7.00;100.00;96112.59;110641;1237;59723;-61
2023/12/14 08:02:39;;;;;;;;;;;;;;;7.01;100.00;96109.02;110466;1246;70560;-61
2023/12/14 08:05:09;;;;;;;;;;;;;;;7.03;100.00;96120.30;110559;1239;69249;-61
2023/12/14 08:07:38;;;;;;;;;;;;;;;7.06;100.00;96134.60;110630;1239;69916;-61
2023/12/14 08:10:08;;;;;;;;;;;;;;;7.07;100.00;96140.42;110539;1239;59714;-61
2023/12/14 08:12:37;;;;;;;;;;;;;;;7.08;100.00;96150.62;110602;1239;59717;-61
2023/12/14 08:15:07;;;;;;;;;;;;;;;7.09;100.00;96157.83;110646;1238;72086;-61
2023/12/14 08:17:37;;;;;;;;;;;;;;;7.10;100.00;96164.64;110573;1239;69833;-61
2023/12/14 08:20:08;;;;;;;;;;;;;;;7.10;100.00;96167.21;110533;1239;69293;-61
2023/12/14 08:22:44;;;;;;;;;;;;;;;7.09;100.00;96165.92;110481;1239;59734;-62
2023/12/14 08:25:17;;;;;;;;;;;;;;;7.05;100.00;96165.01;110539;1238;59731;-61
2023/12/14 08:27:47;;;;;;;;;;;;;;;7.05;100.00;96163.66;110602;1239;70392;-62
2023/12/14 08:30:16;;;;;;;;;;;;;;;7.04;100.00;96168.45;110584;1239;69788;-61
2023/12/14 08:32:45;;;;;;;;;;;;;;;7.03;100.00;96174.23;110472;1238;68520;-60
2023/12/14 08:35:15;;;;;;;;;;;;;;;7.02;100.00;96172.59;110563;1237;59742;-59
2023/12/14 08:37:45;;;;;;;;;;;;;;;7.01;100.00;96173.30;110619;1239;59625;-62
2023/12/14 08:40:15;;;;;;;;;;;;;;;7.03;100.00;96178.21;110505;1239;71964;-61
2023/12/14 08:42:44;;;;;;;;;;;;;;;7.02;100.00;96180.48;110558;1239;69831;-61
2023/12/14 08:45:14;;;;;;;;;;;;;;;7.03;100.00;96180.95;110583;1239;69117;-61
2023/12/14 08:47:43;;;;;;;;;;;;;;;7.03;100.00;96178.71;110567;1239;59746;-61
2023/12/14 08:50:12;;;;;;;;;;;;;;;7.04;100.00;96176.38;110661;1238;59728;-62
2023/12/14 08:52:42;;;;;;;;;;;;;;;7.03;100.00;96195.67;110539;1240;71803;-63
2023/12/14 08:55:11;;;;;;;;;;;;;;;7.01;100.00;96209.84;110576;1239;68912;-63
2023/12/14 08:57:41;;;;;;;;;;;;;;;6.99;100.00;96200.52;110577;1238;68434;-62
2023/12/14 09:00:12;;;;;;;;;;;;;;;6.94;100.00;96187.88;110569;1239;59703;-62
2023/12/14 09:02:41;;;;;;;;;;;;;;;6.91;100.00;96191.23;110570;1239;59669;-62
2023/12/14 09:05:14;;;;;;;;;;;;;;;6.85;100.00;96198.27;110633;1238;71161;-62
2023/12/14 09:07:44;;;;;;;;;;;;;;;6.85;100.00;96193.45;110531;1239;69244;-61
2023/12/14 09:10:14;;;;;;;;;;;;;;;6.84;100.00;96191.08;110498;1246;69232;-61
2023/12/14 09:12:43;;;;;;;;;;;;;;;6.87;100.00;96192.95;110479;1239;59761;-61
2023/12/14 09:15:13;;;;;;;;;;;;;;;6.91;100.00;96200.42;110525;1238;59654;-61
2023/12/14 09:17:42;;;;;;;;;;;;;;;6.94;100.00;96207.84;110523;1239;71364;-62
2023/12/14 09:20:12;;;;;;;;;;;;;;;6.97;100.00;96206.38;110547;1239;69098;-61
2023/12/14 09:22:42;;;;;;;;;;;;;;;6.99;100.00;96206.02;110532;1239;69653;-61
2023/12/14 09:25:11;;;;;;;;;;;;;;;7.02;100.00;96209.96;110574;1239;60139;-61
2023/12/14 09:27:40;;;;;;;;;;;;;;;7.05;100.00;96206.14;110596;1239;59621;-61
2023/12/14 09:30:10;;;;;;;;;;;;;;;7.06;100.00;96207.56;110550;1239;71988;-62
2023/12/14 09:32:40;;;;;;;;;;;;;;;7.07;100.00;96214.40;110596;1239;68832;-61
2023/12/14 09:35:10;;;;;;;;;;;;;;;7.08;100.00;96220.79;110545;1239;69121;-61
2023/12/14 09:37:41;;;;;;;;;;;;;;;7.08;100.00;96220.77;110509;1239;59981;-62
2023/12/14 09:40:11;;;;;;;;;;;;;;;7.10;100.00;96218.86;110521;1241;59704;-61
2023/12/14 09:42:43;;;;;;;;;;;;;;;7.09;100.00;96237.30;110496;1244;72035;-60
2023/12/14 09:45:13;;;;;;;;;;;;;;;7.08;100.00;96254.20;110697;1238;69258;-61
2023/12/14 09:47:44;;;;;;;;;;;;;;;7.06;100.00;96254.67;110666;1239;68331;-61
2023/12/14 09:50:14;;;;;;;;;;;;;;;7.04;100.00;96251.21;110684;1239;59699;-61
2023/12/14 09:52:45;;;;;;;;;;;;;;;7.04;100.00;96243.75;110686;1239;59687;-62
2023/12/14 09:55:14;;;;;;;;;;;;;;;6.99;100.00;96239.48;110606;1239;71980;-62
2023/12/14 09:57:44;;;;;;;;;;;;;;;6.90;100.00;96249.15;110554;1239;70301;-62
2023/12/14 10:00:32;;;;;;;;;;;;;;;6.88;100.00;96262.95;110507;1239;69858;-62
2023/12/14 10:03:21;;;;;;;;;;;;;;;6.86;100.00;96267.46;110552;1239;59675;-62
2023/12/14 10:05:50;;;;;;;;;;;;;;;6.84;100.00;96262.77;110483;1238;59798;-60
2023/12/14 10:08:19;;;;;;;;;;;;;;;6.84;100.00;96258.83;110603;1239;71969;-62
2023/12/14 10:10:52;;;;;;;;;;;;;;;6.81;100.00;96257.50;110598;1239;69117;-62
2023/12/14 10:13:35;;;;;;;;;;;;;;;6.79;100.00;96252.80;110531;1239;68490;-62
2023/12/14 10:16:05;;;;;;;;;;;;;;;6.75;100.00;96249.48;110594;1239;59694;-62
2023/12/14 10:18:36;;;;;;;;;;;;;;;6.73;100.00;96243.77;110683;1239;59670;-62
2023/12/14 10:21:06;;;;;;;;;;;;;;;6.59;100.00;96231.92;110498;1239;71367;-61
2023/12/14 10:23:35;;;;;;;;;;;;;;;6.53;100.00;96227.20;110649;1241;69088;-62
2023/12/14 10:26:06;;;;;;;;;;;;;;;6.48;100.00;96237.15;110437;1242;67905;-62
2023/12/14 10:28:35;;;;;;;;;;;;;;;6.46;100.00;96237.61;110488;1239;59641;-61
2023/12/14 10:31:05;;;;;;;;;;;;;;;6.46;100.00;96247.65;110579;1238;59647;-61
2023/12/14 10:33:34;;;;;;;;;;;;;;;6.45;100.00;96251.03;110621;1238;71010;-61
2023/12/14 10:36:03;;;;;;;;;;;;;;;6.45;100.00;96253.75;110603;1239;68268;-61
2023/12/14 10:38:34;;;;;;;;;;;;;;;6.46;100.00;96249.23;110613;1239;69202;-61
2023/12/14 10:41:04;;;;;;;;;;;;;;;6.44;100.00;96244.34;110649;1239;59765;-61
2023/12/14 10:43:36;;;;;;;;;;;;;;;6.46;100.00;96251.80;110672;1246;59703;-62
2023/12/14 10:46:19;;;;;;;;;;;;;;;6.48;100.00;96257.05;110635;1239;71962;-62
2023/12/14 10:48:50;;;;;;;;;;;;;;;6.49;100.00;96266.16;110652;1239;69170;-62
2023/12/14 10:51:20;;;;;;;;;;;;;;;6.49;100.00;96268.06;110642;1238;69848;-62
2023/12/14 10:53:51;;;;;;;;;;;;;;;6.47;100.00;96268.02;110688;1238;59664;-62
2023/12/14 10:56:21;;;;;;;;;;;;;;;6.45;100.00;96262.41;110618;1239;59665;-62
2023/12/14 10:58:57;;;;;;;;;;;;;;;6.50;100.00;96261.94;110608;1239;71943;-62
2023/12/14 11:01:27;;;;;;;;;;;;;;;6.57;100.00;96259.83;110581;1237;69261;-62
2023/12/14 11:03:59;;;;;;;;;;;;;;;6.61;100.00;96260.68;110580;1244;69274;-62
2023/12/14 11:06:30;;;;;;;;;;;;;;;6.68;100.00;96274.93;110666;1239;59708;-62
2023/12/14 11:09:06;;;;;;;;;;;;;;;6.75;100.00;96282.55;110693;1239;59639;-62
2023/12/14 11:11:43;;;;;;;;;;;;;;;6.75;100.00;96283.59;110598;1239;72542;-62
2023/12/14 11:14:13;;;;;;;;;;;;;;;6.75;100.00;96293.48;110578;1239;69794;-62
2023/12/14 11:16:46;;;;;;;;;;;;;;;6.77;100.00;96299.14;110551;1240;69248;-62
2023/12/14 11:19:21;;;;;;;;;;;;;;;6.74;100.00;96300.80;110542;1237;59670;-62
2023/12/14 11:21:57;;;;;;;;;;;;;;;6.71;100.00;96301.36;110598;1239;59672;-62
2023/12/14 11:24:27;;;;;;;;;;;;;;;6.70;100.00;96310.48;110479;1238;71840;-62
2023/12/14 11:26:55;;;;;;;;;;;;;;;6.64;100.00;96316.76;110553;1239;69924;-63
2023/12/14 11:29:25;;;;;;;;;;;;;;;6.58;100.00;96318.23;110549;1239;68399;-62
2023/12/14 11:31:54;;;;;;;;;;;;;;;6.51;100.00;96313.92;110566;1239;59678;-62
2023/12/14 11:34:27;;;;;;;;;;;;;;;6.49;100.00;96317.16;110571;1239;59674;-61
2023/12/14 11:36:55;;;;;;;;;;;;;;;6.40;100.00;96324.61;110596;1239;71431;-61
2023/12/14 11:39:29;;;;;;;;;;;;;;;6.40;100.00;96327.74;110575;1238;68536;-61
2023/12/14 11:42:03;;;;;;;;;;;;;;;6.37;100.00;96334.67;110642;1239;69371;-61
2023/12/14 11:44:32;;;;;;;;;;;;;;;6.34;100.00;96345.98;110698;1239;59804;-61
2023/12/14 11:47:03;;;;;;;;;;;;;;;6.32;100.00;96348.38;110684;1238;59686;-63
2023/12/14 11:49:32;;;;;;;;;;;;;;;6.31;100.00;96353.09;110629;1238;71975;-63
2023/12/14 11:52:02;;;;;;;;;;;;;;;6.36;100.00;96354.66;110491;1239;69262;-61
2023/12/14 11:54:31;;;;;;;;;;;;;;;6.38;100.00;96346.55;110508;1239;69838;-61
2023/12/14 11:57:03;;;;;;;;;;;;;;;6.40;100.00;96341.62;110497;1239;59744;-61
2023/12/14 11:59:32;;;;;;;;;;;;;;;6.38;100.00;96342.02;110731;1239;59612;-62
2023/12/14 12:02:01;;;;;;;;;;;;;;;6.40;100.00;96334.66;110473;1237;71350;-62
2023/12/14 12:04:30;;;;;;;;;;;;;;;6.40;100.00;96330.48;110695;1239;69254;-61
2023/12/14 12:07:01;;;;;;;;;;;;;;;6.39;100.00;96321.89;110714;1238;69233;-62
2023/12/14 12:09:40;;;;;;;;;;;;;;;6.40;100.00;96319.58;110735;1239;59663;-62
2023/12/14 12:12:10;;;;;;;;;;;;;;;6.40;100.00;96319.44;110540;1240;59697;-61
2023/12/14 12:14:40;;;;;;;;;;;;;;;6.38;100.00;96324.55;110525;1239;71991;-61
2023/12/14 12:17:09;;;;;;;;;;;;;;;6.35;100.00;96332.91;110473;1237;69219;-61
2023/12/14 12:19:39;;;;;;;;;;;;;;;6.33;100.00;96334.12;110475;1239;68313;-62
2023/12/14 12:22:08;;;;;;;;;;;;;;;6.29;100.00;96339.80;110560;1239;59738;-60
2023/12/14 12:24:37;;;;;;;;;;;;;;;6.25;100.00;96348.85;110539;1237;59734;-61
2023/12/14 12:27:08;;;;;;;;;;;;;;;6.23;100.00;96347.84;110510;1239;72008;-62
2023/12/14 12:29:38;;;;;;;;;;;;;;;6.21;100.00;96347.82;110658;1239;69088;-62
2023/12/14 12:32:07;;;;;;;;;;;;;;;6.19;100.00;96347.57;110504;1239;70006;-62
2023/12/14 12:34:36;;;;;;;;;;;;;;;6.17;100.00;96347.70;110597;1239;59684;-62
2023/12/14 12:37:06;;;;;;;;;;;;;;;6.14;100.00;96352.42;110566;1239;59688;-62
2023/12/14 12:39:35;;;;;;;;;;;;;;;6.11;100.00;96354.92;110640;1238;72286;-62
2023/12/14 12:42:04;;;;;;;;;;;;;;;6.08;100.00;96363.40;110638;1239;69199;-62
2023/12/14 12:44:34;;;;;;;;;;;;;;;6.06;100.00;96364.73;110543;1239;69268;-62
2023/12/14 12:47:03;;;;;;;;;;;;;;;6.05;100.00;96360.66;110460;1239;59646;-61
2023/12/14 12:49:39;;;;;;;;;;;;;;;6.01;100.00;96362.73;110673;1239;59623;-61
2023/12/14 12:52:08;;;;;;;;;;;;;;;6.01;100.00;96366.14;110694;1239;71972;-61
2023/12/14 12:54:37;;;;;;;;;;;;;;;6.01;100.00;96365.80;110588;1239;69778;-61